sensor_id;sensor_type;location;lat;lon;timestamp;P1;durP1;ratioP1;P2;durP2;ratioP2
78296;SDS011;67555;47.660;19.622;2023-08-06T00:00:16;16.50;;;11.95;;
78296;SDS011;67555;47.660;19.622;2023-08-06T00:02:41;14.80;;;11.65;;
78296;SDS011;67555;47.660;19.622;2023-08-06T00:05:07;14.05;;;12.18;;
78296;SDS011;67555;47.660;19.622;2023-08-06T00:07:33;15.80;;;13.25;;
78296;SDS011;67555;47.660;19.622;2023-08-06T00:09:59;14.63;;;12.07;;
78296;SDS011;67555;47.660;19.622;2023-08-06T00:12:24;14.77;;;12.18;;
78296;SDS011;67555;47.660;19.622;2023-08-06T00:14:50;15.85;;;12.75;;
78296;SDS011;67555;47.660;19.622;2023-08-06T00:17:17;19.65;;;13.77;;
78296;SDS011;67555;47.660;19.622;2023-08-06T00:19:43;16.45;;;12.85;;
78296;SDS011;67555;47.660;19.622;2023-08-06T00:22:09;16.73;;;13.30;;
78296;SDS011;67555;47.660;19.622;2023-08-06T00:24:34;15.02;;;11.27;;
78296;SDS011;67555;47.660;19.622;2023-08-06T00:27:00;15.20;;;12.52;;
78296;SDS011;67555;47.660;19.622;2023-08-06T00:29:27;15.93;;;12.70;;
78296;SDS011;67555;47.660;19.622;2023-08-06T00:31:53;15.10;;;11.98;;
78296;SDS011;67555;47.660;19.622;2023-08-06T00:34:18;18.63;;;13.13;;
78296;SDS011;67555;47.660;19.622;2023-08-06T00:36:44;16.13;;;12.48;;
78296;SDS011;67555;47.660;19.622;2023-08-06T00:39:10;15.77;;;12.15;;
78296;SDS011;67555;47.660;19.622;2023-08-06T00:41:36;15.50;;;12.57;;
78296;SDS011;67555;47.660;19.622;2023-08-06T00:44:01;16.02;;;12.30;;
78296;SDS011;67555;47.660;19.622;2023-08-06T00:46:27;15.77;;;12.52;;
78296;SDS011;67555;47.660;19.622;2023-08-06T00:48:53;16.38;;;12.95;;
78296;SDS011;67555;47.660;19.622;2023-08-06T00:51:20;16.13;;;13.13;;
78296;SDS011;67555;47.660;19.622;2023-08-06T00:53:46;15.18;;;12.23;;
78296;SDS011;67555;47.660;19.622;2023-08-06T00:56:13;14.93;;;12.20;;
78296;SDS011;67555;47.660;19.622;2023-08-06T00:58:39;17.48;;;12.95;;
78296;SDS011;67555;47.660;19.622;2023-08-06T01:01:05;15.68;;;12.13;;
78296;SDS011;67555;47.660;19.622;2023-08-06T01:03:31;15.75;;;11.73;;
78296;SDS011;67555;47.660;19.622;2023-08-06T01:05:57;14.85;;;11.50;;
78296;SDS011;67555;47.660;19.622;2023-08-06T01:16:09;14.05;;;11.15;;
78296;SDS011;67555;47.660;19.622;2023-08-06T01:18:36;11.75;;;10.13;;
78296;SDS011;67555;47.660;19.622;2023-08-06T01:21:04;12.52;;;9.98;;
78296;SDS011;67555;47.660;19.622;2023-08-06T01:23:29;11.43;;;9.85;;
78296;SDS011;67555;47.660;19.622;2023-08-06T01:31:10;9.38;;;7.88;;
78296;SDS011;67555;47.660;19.622;2023-08-06T01:34:03;8.63;;;7.07;;
78296;SDS011;67555;47.660;19.622;2023-08-06T01:36:32;9.20;;;8.00;;
78296;SDS011;67555;47.660;19.622;2023-08-06T01:38:58;9.55;;;7.80;;
78296;SDS011;67555;47.660;19.622;2023-08-06T01:41:26;10.25;;;8.02;;
78296;SDS011;67555;47.660;19.622;2023-08-06T01:43:52;9.05;;;7.95;;
78296;SDS011;67555;47.660;19.622;2023-08-06T01:46:17;10.02;;;8.93;;
78296;SDS011;67555;47.660;19.622;2023-08-06T01:48:43;11.02;;;9.18;;
78296;SDS011;67555;47.660;19.622;2023-08-06T01:51:09;13.00;;;8.75;;
78296;SDS011;67555;47.660;19.622;2023-08-06T01:53:34;10.75;;;8.82;;
78296;SDS011;67555;47.660;19.622;2023-08-06T01:56:00;9.68;;;8.27;;
78296;SDS011;67555;47.660;19.622;2023-08-06T01:58:26;10.10;;;8.10;;
78296;SDS011;67555;47.660;19.622;2023-08-06T02:00:52;9.20;;;7.20;;
78296;SDS011;67555;47.660;19.622;2023-08-06T02:03:17;8.63;;;7.18;;
78296;SDS011;67555;47.660;19.622;2023-08-06T02:05:43;8.88;;;7.15;;
78296;SDS011;67555;47.660;19.622;2023-08-06T02:08:09;9.75;;;6.78;;
78296;SDS011;67555;47.660;19.622;2023-08-06T02:10:34;9.18;;;7.05;;
78296;SDS011;67555;47.660;19.622;2023-08-06T02:13:00;6.82;;;5.95;;
78296;SDS011;67555;47.660;19.622;2023-08-06T02:15:26;9.77;;;6.20;;
78296;SDS011;67555;47.660;19.622;2023-08-06T02:17:51;7.15;;;5.90;;
78296;SDS011;67555;47.660;19.622;2023-08-06T02:20:17;7.32;;;6.05;;
78296;SDS011;67555;47.660;19.622;2023-08-06T02:22:43;7.50;;;6.18;;
78296;SDS011;67555;47.660;19.622;2023-08-06T02:25:09;7.38;;;6.18;;
78296;SDS011;67555;47.660;19.622;2023-08-06T02:27:34;7.78;;;5.82;;
78296;SDS011;67555;47.660;19.622;2023-08-06T02:30:00;7.30;;;6.25;;
78296;SDS011;67555;47.660;19.622;2023-08-06T02:32:27;9.73;;;7.20;;
78296;SDS011;67555;47.660;19.622;2023-08-06T02:34:55;8.73;;;6.35;;
78296;SDS011;67555;47.660;19.622;2023-08-06T02:37:20;6.95;;;5.88;;
78296;SDS011;67555;47.660;19.622;2023-08-06T02:39:46;7.28;;;6.32;;
78296;SDS011;67555;47.660;19.622;2023-08-06T02:42:12;8.50;;;6.47;;
78296;SDS011;67555;47.660;19.622;2023-08-06T02:44:38;7.75;;;6.53;;
78296;SDS011;67555;47.660;19.622;2023-08-06T02:47:04;8.00;;;6.18;;
78296;SDS011;67555;47.660;19.622;2023-08-06T02:49:30;7.80;;;6.28;;
78296;SDS011;67555;47.660;19.622;2023-08-06T02:51:55;8.05;;;6.50;;
78296;SDS011;67555;47.660;19.622;2023-08-06T02:54:21;7.28;;;5.68;;
78296;SDS011;67555;47.660;19.622;2023-08-06T02:56:47;5.90;;;4.93;;
78296;SDS011;67555;47.660;19.622;2023-08-06T02:59:12;5.50;;;5.00;;
78296;SDS011;67555;47.660;19.622;2023-08-06T03:01:38;5.43;;;4.53;;
78296;SDS011;67555;47.660;19.622;2023-08-06T03:04:04;6.88;;;5.32;;
78296;SDS011;67555;47.660;19.622;2023-08-06T03:06:30;6.32;;;4.60;;
78296;SDS011;67555;47.660;19.622;2023-08-06T03:08:56;4.47;;;3.63;;
78296;SDS011;67555;47.660;19.622;2023-08-06T03:11:22;4.00;;;3.13;;
78296;SDS011;67555;47.660;19.622;2023-08-06T03:13:48;2.80;;;2.10;;
78296;SDS011;67555;47.660;19.622;2023-08-06T03:16:13;4.28;;;2.70;;
78296;SDS011;67555;47.660;19.622;2023-08-06T03:18:39;2.65;;;2.13;;
78296;SDS011;67555;47.660;19.622;2023-08-06T03:21:05;3.55;;;2.10;;
78296;SDS011;67555;47.660;19.622;2023-08-06T03:23:31;3.42;;;2.38;;
78296;SDS011;67555;47.660;19.622;2023-08-06T03:26:00;3.10;;;2.42;;
78296;SDS011;67555;47.660;19.622;2023-08-06T03:28:27;2.90;;;2.50;;
78296;SDS011;67555;47.660;19.622;2023-08-06T03:31:02;3.10;;;2.47;;
78296;SDS011;67555;47.660;19.622;2023-08-06T03:33:29;2.63;;;2.10;;
78296;SDS011;67555;47.660;19.622;2023-08-06T03:35:55;3.28;;;2.38;;
78296;SDS011;67555;47.660;19.622;2023-08-06T03:38:21;3.10;;;2.10;;
78296;SDS011;67555;47.660;19.622;2023-08-06T03:40:48;3.00;;;2.30;;
78296;SDS011;67555;47.660;19.622;2023-08-06T03:43:14;3.35;;;2.28;;
78296;SDS011;67555;47.660;19.622;2023-08-06T03:45:40;3.63;;;2.20;;
78296;SDS011;67555;47.660;19.622;2023-08-06T03:48:06;3.28;;;2.60;;
78296;SDS011;67555;47.660;19.622;2023-08-06T03:50:32;3.08;;;2.47;;
78296;SDS011;67555;47.660;19.622;2023-08-06T03:52:58;4.07;;;2.97;;
78296;SDS011;67555;47.660;19.622;2023-08-06T03:55:24;3.50;;;2.80;;
78296;SDS011;67555;47.660;19.622;2023-08-06T03:57:50;4.13;;;2.67;;
78296;SDS011;67555;47.660;19.622;2023-08-06T04:00:16;3.50;;;2.78;;
78296;SDS011;67555;47.660;19.622;2023-08-06T04:02:41;3.80;;;2.70;;
78296;SDS011;67555;47.660;19.622;2023-08-06T04:05:07;4.75;;;3.30;;
78296;SDS011;67555;47.660;19.622;2023-08-06T04:07:33;4.13;;;2.97;;
78296;SDS011;67555;47.660;19.622;2023-08-06T04:10:00;5.03;;;2.83;;
78296;SDS011;67555;47.660;19.622;2023-08-06T04:12:27;3.08;;;2.40;;
78296;SDS011;67555;47.660;19.622;2023-08-06T04:14:54;3.10;;;2.25;;
78296;SDS011;67555;47.660;19.622;2023-08-06T04:17:21;2.83;;;2.20;;
78296;SDS011;67555;47.660;19.622;2023-08-06T04:19:50;2.88;;;2.10;;
78296;SDS011;67555;47.660;19.622;2023-08-06T04:22:17;4.15;;;2.25;;
78296;SDS011;67555;47.660;19.622;2023-08-06T04:24:43;2.55;;;2.13;;
78296;SDS011;67555;47.660;19.622;2023-08-06T04:27:10;2.83;;;1.92;;
78296;SDS011;67555;47.660;19.622;2023-08-06T04:29:36;3.17;;;2.22;;
78296;SDS011;67555;47.660;19.622;2023-08-06T04:32:03;7.03;;;2.47;;
78296;SDS011;67555;47.660;19.622;2023-08-06T04:34:34;2.95;;;2.22;;
78296;SDS011;67555;47.660;19.622;2023-08-06T04:37:01;3.10;;;2.08;;
78296;SDS011;67555;47.660;19.622;2023-08-06T04:39:28;2.35;;;1.88;;
78296;SDS011;67555;47.660;19.622;2023-08-06T04:41:54;3.22;;;2.35;;
78296;SDS011;67555;47.660;19.622;2023-08-06T04:44:21;2.85;;;2.08;;
78296;SDS011;67555;47.660;19.622;2023-08-06T04:46:47;4.28;;;2.15;;
78296;SDS011;67555;47.660;19.622;2023-08-06T04:49:13;2.33;;;1.70;;
78296;SDS011;67555;47.660;19.622;2023-08-06T04:51:38;2.75;;;2.08;;
78296;SDS011;67555;47.660;19.622;2023-08-06T04:54:04;2.78;;;2.17;;
78296;SDS011;67555;47.660;19.622;2023-08-06T04:56:30;2.30;;;1.88;;
78296;SDS011;67555;47.660;19.622;2023-08-06T04:58:57;2.90;;;2.05;;
78296;SDS011;67555;47.660;19.622;2023-08-06T05:01:23;2.67;;;1.83;;
78296;SDS011;67555;47.660;19.622;2023-08-06T05:03:49;3.03;;;2.17;;
78296;SDS011;67555;47.660;19.622;2023-08-06T05:06:15;2.50;;;1.85;;
78296;SDS011;67555;47.660;19.622;2023-08-06T05:08:41;2.17;;;1.73;;
78296;SDS011;67555;47.660;19.622;2023-08-06T05:11:06;3.78;;;1.65;;
78296;SDS011;67555;47.660;19.622;2023-08-06T05:13:32;2.00;;;1.80;;
78296;SDS011;67555;47.660;19.622;2023-08-06T05:15:58;2.67;;;1.90;;
78296;SDS011;67555;47.660;19.622;2023-08-06T05:18:24;2.40;;;2.10;;
78296;SDS011;67555;47.660;19.622;2023-08-06T05:20:49;2.55;;;1.67;;
78296;SDS011;67555;47.660;19.622;2023-08-06T05:23:15;2.40;;;1.90;;
78296;SDS011;67555;47.660;19.622;2023-08-06T05:25:41;2.20;;;1.73;;
78296;SDS011;67555;47.660;19.622;2023-08-06T05:28:07;2.38;;;2.03;;
78296;SDS011;67555;47.660;19.622;2023-08-06T05:30:33;2.30;;;1.88;;
78296;SDS011;67555;47.660;19.622;2023-08-06T05:33:02;2.42;;;1.80;;
78296;SDS011;67555;47.660;19.622;2023-08-06T05:35:27;2.33;;;1.80;;
78296;SDS011;67555;47.660;19.622;2023-08-06T05:37:53;1.70;;;1.60;;
78296;SDS011;67555;47.660;19.622;2023-08-06T05:40:19;1.85;;;1.50;;
78296;SDS011;67555;47.660;19.622;2023-08-06T05:42:44;2.70;;;2.00;;
78296;SDS011;67555;47.660;19.622;2023-08-06T05:45:10;2.10;;;1.58;;
78296;SDS011;67555;47.660;19.622;2023-08-06T05:47:36;3.33;;;1.90;;
78296;SDS011;67555;47.660;19.622;2023-08-06T05:50:02;2.90;;;2.00;;
78296;SDS011;67555;47.660;19.622;2023-08-06T05:52:28;2.08;;;1.75;;
78296;SDS011;67555;47.660;19.622;2023-08-06T05:54:53;1.60;;;1.50;;
78296;SDS011;67555;47.660;19.622;2023-08-06T05:57:20;1.88;;;1.67;;
78296;SDS011;67555;47.660;19.622;2023-08-06T05:59:45;1.55;;;1.35;;
78296;SDS011;67555;47.660;19.622;2023-08-06T06:02:11;2.75;;;1.77;;
78296;SDS011;67555;47.660;19.622;2023-08-06T06:04:37;1.75;;;1.42;;
78296;SDS011;67555;47.660;19.622;2023-08-06T06:07:03;2.78;;;1.80;;
78296;SDS011;67555;47.660;19.622;2023-08-06T06:09:29;2.05;;;1.65;;
78296;SDS011;67555;47.660;19.622;2023-08-06T06:11:54;1.70;;;1.58;;
78296;SDS011;67555;47.660;19.622;2023-08-06T06:14:20;2.40;;;1.77;;
78296;SDS011;67555;47.660;19.622;2023-08-06T06:16:46;2.20;;;1.80;;
78296;SDS011;67555;47.660;19.622;2023-08-06T06:19:12;2.50;;;1.80;;
78296;SDS011;67555;47.660;19.622;2023-08-06T06:21:38;2.55;;;2.00;;
78296;SDS011;67555;47.660;19.622;2023-08-06T06:24:04;2.08;;;1.65;;
78296;SDS011;67555;47.660;19.622;2023-08-06T06:26:31;2.10;;;1.67;;
78296;SDS011;67555;47.660;19.622;2023-08-06T06:28:57;2.70;;;1.92;;
78296;SDS011;67555;47.660;19.622;2023-08-06T06:31:23;2.00;;;1.70;;
78296;SDS011;67555;47.660;19.622;2023-08-06T06:33:49;2.72;;;1.80;;
78296;SDS011;67555;47.660;19.622;2023-08-06T06:36:15;3.10;;;2.20;;
78296;SDS011;67555;47.660;19.622;2023-08-06T06:38:40;2.47;;;1.83;;
78296;SDS011;67555;47.660;19.622;2023-08-06T06:41:06;2.00;;;1.67;;
78296;SDS011;67555;47.660;19.622;2023-08-06T06:43:32;1.23;;;1.10;;
78296;SDS011;67555;47.660;19.622;2023-08-06T06:45:58;1.45;;;1.23;;
78296;SDS011;67555;47.660;19.622;2023-08-06T06:48:31;1.17;;;1.02;;
78296;SDS011;67555;47.660;19.622;2023-08-06T06:50:58;2.50;;;1.10;;
78296;SDS011;67555;47.660;19.622;2023-08-06T06:53:24;1.10;;;1.00;;
78296;SDS011;67555;47.660;19.622;2023-08-06T06:55:56;1.30;;;0.95;;
78296;SDS011;67555;47.660;19.622;2023-08-06T06:58:29;1.75;;;0.82;;
78296;SDS011;67555;47.660;19.622;2023-08-06T07:00:55;0.60;;;0.60;;
78296;SDS011;67555;47.660;19.622;2023-08-06T07:03:21;1.25;;;0.80;;
78296;SDS011;67555;47.660;19.622;2023-08-06T07:05:47;1.88;;;0.88;;
78296;SDS011;67555;47.660;19.622;2023-08-06T07:08:13;0.55;;;0.55;;
78296;SDS011;67555;47.660;19.622;2023-08-06T07:10:40;0.50;;;0.50;;
78296;SDS011;67555;47.660;19.622;2023-08-06T07:13:07;0.63;;;0.60;;
78296;SDS011;67555;47.660;19.622;2023-08-06T07:15:32;0.90;;;0.55;;
78296;SDS011;67555;47.660;19.622;2023-08-06T07:17:58;0.22;;;0.22;;
78296;SDS011;67555;47.660;19.622;2023-08-06T07:20:24;0.40;;;0.40;;
78296;SDS011;67555;47.660;19.622;2023-08-06T07:22:50;0.52;;;0.50;;
78296;SDS011;67555;47.660;19.622;2023-08-06T07:25:16;0.35;;;0.35;;
78296;SDS011;67555;47.660;19.622;2023-08-06T07:27:42;3.58;;;0.75;;
78296;SDS011;67555;47.660;19.622;2023-08-06T07:30:08;1.77;;;0.55;;
78296;SDS011;67555;47.660;19.622;2023-08-06T07:32:34;0.63;;;0.45;;
78296;SDS011;67555;47.660;19.622;2023-08-06T07:34:59;0.25;;;0.25;;
78296;SDS011;67555;47.660;19.622;2023-08-06T07:37:27;0.85;;;0.60;;
78296;SDS011;67555;47.660;19.622;2023-08-06T07:39:54;1.02;;;0.73;;
78296;SDS011;67555;47.660;19.622;2023-08-06T07:42:20;1.45;;;0.55;;
78296;SDS011;67555;47.660;19.622;2023-08-06T07:44:53;0.50;;;0.50;;
78296;SDS011;67555;47.660;19.622;2023-08-06T07:47:20;0.52;;;0.45;;
78296;SDS011;67555;47.660;19.622;2023-08-06T07:49:46;0.43;;;0.43;;
78296;SDS011;67555;47.660;19.622;2023-08-06T07:52:12;1.00;;;0.55;;
78296;SDS011;67555;47.660;19.622;2023-08-06T07:54:38;0.30;;;0.30;;
78296;SDS011;67555;47.660;19.622;2023-08-06T07:57:04;0.30;;;0.30;;
78296;SDS011;67555;47.660;19.622;2023-08-06T07:59:30;0.85;;;0.65;;
78296;SDS011;67555;47.660;19.622;2023-08-06T08:01:56;0.45;;;0.32;;
78296;SDS011;67555;47.660;19.622;2023-08-06T08:04:21;0.25;;;0.25;;
78296;SDS011;67555;47.660;19.622;2023-08-06T08:06:47;0.40;;;0.40;;
78296;SDS011;67555;47.660;19.622;2023-08-06T08:09:13;0.30;;;0.30;;
78296;SDS011;67555;47.660;19.622;2023-08-06T08:11:41;0.82;;;0.45;;
78296;SDS011;67555;47.660;19.622;2023-08-06T08:14:06;0.30;;;0.30;;
78296;SDS011;67555;47.660;19.622;2023-08-06T08:16:32;0.55;;;0.50;;
78296;SDS011;67555;47.660;19.622;2023-08-06T08:18:58;0.43;;;0.43;;
78296;SDS011;67555;47.660;19.622;2023-08-06T08:21:24;0.45;;;0.45;;
78296;SDS011;67555;47.660;19.622;2023-08-06T08:23:50;0.93;;;0.50;;
78296;SDS011;67555;47.660;19.622;2023-08-06T08:26:16;3.30;;;0.77;;
78296;SDS011;67555;47.660;19.622;2023-08-06T08:28:42;0.20;;;0.20;;
78296;SDS011;67555;47.660;19.622;2023-08-06T08:31:08;0.60;;;0.60;;
78296;SDS011;67555;47.660;19.622;2023-08-06T08:33:34;0.20;;;0.20;;
78296;SDS011;67555;47.660;19.622;2023-08-06T08:36:00;0.65;;;0.45;;
78296;SDS011;67555;47.660;19.622;2023-08-06T08:38:26;0.50;;;0.32;;
78296;SDS011;67555;47.660;19.622;2023-08-06T08:40:52;0.45;;;0.45;;
78296;SDS011;67555;47.660;19.622;2023-08-06T08:43:22;0.30;;;0.30;;
78296;SDS011;67555;47.660;19.622;2023-08-06T08:45:52;0.73;;;0.68;;
78296;SDS011;67555;47.660;19.622;2023-08-06T08:48:23;0.43;;;0.32;;
78296;SDS011;67555;47.660;19.622;2023-08-06T08:50:51;0.50;;;0.28;;
78296;SDS011;67555;47.660;19.622;2023-08-06T08:53:18;1.30;;;0.35;;
78296;SDS011;67555;47.660;19.622;2023-08-06T08:55:46;1.05;;;0.52;;
78296;SDS011;67555;47.660;19.622;2023-08-06T08:58:14;0.35;;;0.22;;
78296;SDS011;67555;47.660;19.622;2023-08-06T09:00:41;0.30;;;0.30;;
78296;SDS011;67555;47.660;19.622;2023-08-06T09:03:08;0.30;;;0.30;;
78296;SDS011;67555;47.660;19.622;2023-08-06T09:05:34;0.20;;;0.20;;
78296;SDS011;67555;47.660;19.622;2023-08-06T09:08:04;1.15;;;0.47;;
78296;SDS011;67555;47.660;19.622;2023-08-06T09:10:30;0.35;;;0.35;;
78296;SDS011;67555;47.660;19.622;2023-08-06T09:12:56;0.30;;;0.30;;
78296;SDS011;67555;47.660;19.622;2023-08-06T09:15:26;0.93;;;0.35;;
78296;SDS011;67555;47.660;19.622;2023-08-06T09:17:53;0.45;;;0.40;;
78296;SDS011;67555;47.660;19.622;2023-08-06T09:20:19;1.05;;;0.20;;
78296;SDS011;67555;47.660;19.622;2023-08-06T09:22:45;0.38;;;0.25;;
78296;SDS011;67555;47.660;19.622;2023-08-06T09:25:13;0.57;;;0.47;;
78296;SDS011;67555;47.660;19.622;2023-08-06T09:27:48;0.30;;;0.30;;
78296;SDS011;67555;47.660;19.622;2023-08-06T09:30:28;0.10;;;0.10;;
78296;SDS011;67555;47.660;19.622;2023-08-06T09:32:56;0.00;;;0.00;;
78296;SDS011;67555;47.660;19.622;2023-08-06T09:35:22;0.10;;;0.10;;
78296;SDS011;67555;47.660;19.622;2023-08-06T09:37:47;0.10;;;0.10;;
78296;SDS011;67555;47.660;19.622;2023-08-06T09:40:29;0.00;;;0.00;;
78296;SDS011;67555;47.660;19.622;2023-08-06T09:42:56;0.10;;;0.10;;
78296;SDS011;67555;47.660;19.622;2023-08-06T09:45:23;0.00;;;0.00;;
78296;SDS011;67555;47.660;19.622;2023-08-06T09:47:58;0.17;;;0.17;;
78296;SDS011;67555;47.660;19.622;2023-08-06T09:50:28;0.28;;;0.28;;
78296;SDS011;67555;47.660;19.622;2023-08-06T09:52:58;0.08;;;0.08;;
78296;SDS011;67555;47.660;19.622;2023-08-06T09:55:25;0.08;;;0.08;;
78296;SDS011;67555;47.660;19.622;2023-08-06T09:57:53;0.00;;;0.00;;
78296;SDS011;67555;47.660;19.622;2023-08-06T10:00:20;0.00;;;0.00;;
78296;SDS011;67555;47.660;19.622;2023-08-06T10:02:48;0.15;;;0.10;;
78296;SDS011;67555;47.660;19.622;2023-08-06T10:05:15;0.10;;;0.05;;
78296;SDS011;67555;47.660;19.622;2023-08-06T10:07:41;0.10;;;0.10;;
78296;SDS011;67555;47.660;19.622;2023-08-06T10:10:10;0.17;;;0.17;;
78296;SDS011;67555;47.660;19.622;2023-08-06T10:12:37;0.30;;;0.10;;
78296;SDS011;67555;47.660;19.622;2023-08-06T10:15:08;0.28;;;0.15;;
78296;SDS011;67555;47.660;19.622;2023-08-06T10:17:36;0.00;;;0.00;;
78296;SDS011;67555;47.660;19.622;2023-08-06T10:20:04;0.00;;;0.00;;
78296;SDS011;67555;47.660;19.622;2023-08-06T10:22:32;0.00;;;0.00;;
78296;SDS011;67555;47.660;19.622;2023-08-06T10:24:59;0.10;;;0.10;;
78296;SDS011;67555;47.660;19.622;2023-08-06T10:30:21;0.20;;;0.20;;
78296;SDS011;67555;47.660;19.622;2023-08-06T10:38:18;0.10;;;0.10;;
78296;SDS011;67555;47.660;19.622;2023-08-06T10:43:28;0.15;;;0.03;;
78296;SDS011;67555;47.660;19.622;2023-08-06T10:46:01;0.45;;;0.40;;
78296;SDS011;67555;47.660;19.622;2023-08-06T10:48:35;1.10;;;0.38;;
78296;SDS011;67555;47.660;19.622;2023-08-06T10:51:02;0.45;;;0.15;;
78296;SDS011;67555;47.660;19.622;2023-08-06T10:53:28;0.20;;;0.20;;
78296;SDS011;67555;47.660;19.622;2023-08-06T10:55:54;0.10;;;0.10;;
78296;SDS011;67555;47.660;19.622;2023-08-06T10:58:20;0.55;;;0.08;;
78296;SDS011;67555;47.660;19.622;2023-08-06T11:00:46;0.20;;;0.20;;
78296;SDS011;67555;47.660;19.622;2023-08-06T11:03:12;0.88;;;0.40;;
78296;SDS011;67555;47.660;19.622;2023-08-06T11:05:38;0.22;;;0.10;;
78296;SDS011;67555;47.660;19.622;2023-08-06T11:08:04;0.40;;;0.30;;
78296;SDS011;67555;47.660;19.622;2023-08-06T11:10:32;0.30;;;0.20;;
78296;SDS011;67555;47.660;19.622;2023-08-06T11:15:28;0.20;;;0.20;;
78296;SDS011;67555;47.660;19.622;2023-08-06T11:17:55;0.20;;;0.20;;
78296;SDS011;67555;47.660;19.622;2023-08-06T11:20:20;0.10;;;0.10;;
78296;SDS011;67555;47.660;19.622;2023-08-06T11:25:15;0.57;;;0.47;;
78296;SDS011;67555;47.660;19.622;2023-08-06T11:27:40;0.28;;;0.22;;
78296;SDS011;67555;47.660;19.622;2023-08-06T11:30:06;0.00;;;0.00;;
78296;SDS011;67555;47.660;19.622;2023-08-06T11:32:32;1.13;;;0.15;;
78296;SDS011;67555;47.660;19.622;2023-08-06T11:35:08;0.25;;;0.25;;
78296;SDS011;67555;47.660;19.622;2023-08-06T11:37:35;0.10;;;0.10;;
78296;SDS011;67555;47.660;19.622;2023-08-06T11:40:05;0.10;;;0.10;;
78296;SDS011;67555;47.660;19.622;2023-08-06T11:42:36;0.10;;;0.10;;
78296;SDS011;67555;47.660;19.622;2023-08-06T11:45:05;0.88;;;0.25;;
78296;SDS011;67555;47.660;19.622;2023-08-06T11:47:31;0.25;;;0.25;;
78296;SDS011;67555;47.660;19.622;2023-08-06T11:49:57;0.00;;;0.00;;
78296;SDS011;67555;47.660;19.622;2023-08-06T11:52:23;0.05;;;0.05;;
78296;SDS011;67555;47.660;19.622;2023-08-06T11:57:33;0.15;;;0.15;;
78296;SDS011;67555;47.660;19.622;2023-08-06T12:00:03;0.10;;;0.10;;
78296;SDS011;67555;47.660;19.622;2023-08-06T12:02:34;1.33;;;0.60;;
78296;SDS011;67555;47.660;19.622;2023-08-06T12:05:04;0.20;;;0.20;;
78296;SDS011;67555;47.660;19.622;2023-08-06T12:07:44;0.22;;;0.22;;
78296;SDS011;67555;47.660;19.622;2023-08-06T12:10:12;0.28;;;0.28;;
78296;SDS011;67555;47.660;19.622;2023-08-06T12:12:39;0.30;;;0.28;;
78296;SDS011;67555;47.660;19.622;2023-08-06T12:15:05;0.35;;;0.35;;
78296;SDS011;67555;47.660;19.622;2023-08-06T12:17:32;0.25;;;0.25;;
78296;SDS011;67555;47.660;19.622;2023-08-06T12:19:58;0.30;;;0.30;;
78296;SDS011;67555;47.660;19.622;2023-08-06T12:22:24;0.43;;;0.43;;
78296;SDS011;67555;47.660;19.622;2023-08-06T12:24:50;0.28;;;0.28;;
78296;SDS011;67555;47.660;19.622;2023-08-06T12:27:16;0.98;;;0.20;;
78296;SDS011;67555;47.660;19.622;2023-08-06T12:29:42;1.55;;;0.50;;
78296;SDS011;67555;47.660;19.622;2023-08-06T12:32:12;0.17;;;0.17;;
78296;SDS011;67555;47.660;19.622;2023-08-06T12:34:39;0.30;;;0.28;;
78296;SDS011;67555;47.660;19.622;2023-08-06T12:37:05;0.32;;;0.32;;
78296;SDS011;67555;47.660;19.622;2023-08-06T12:39:35;0.50;;;0.32;;
78296;SDS011;67555;47.660;19.622;2023-08-06T12:42:02;0.22;;;0.22;;
78296;SDS011;67555;47.660;19.622;2023-08-06T12:44:30;0.90;;;0.10;;
78296;SDS011;67555;47.660;19.622;2023-08-06T12:46:56;2.20;;;0.30;;
78296;SDS011;67555;47.660;19.622;2023-08-06T12:49:22;0.20;;;0.15;;
78296;SDS011;67555;47.660;19.622;2023-08-06T12:51:48;0.20;;;0.20;;
78296;SDS011;67555;47.660;19.622;2023-08-06T12:54:18;0.38;;;0.38;;
78296;SDS011;67555;47.660;19.622;2023-08-06T12:56:45;0.40;;;0.40;;
78296;SDS011;67555;47.660;19.622;2023-08-06T12:59:14;0.32;;;0.32;;
78296;SDS011;67555;47.660;19.622;2023-08-06T13:01:40;0.35;;;0.35;;
78296;SDS011;67555;47.660;19.622;2023-08-06T13:04:07;0.28;;;0.28;;
78296;SDS011;67555;47.660;19.622;2023-08-06T13:06:33;0.28;;;0.05;;
78296;SDS011;67555;47.660;19.622;2023-08-06T13:09:03;0.25;;;0.25;;
78296;SDS011;67555;47.660;19.622;2023-08-06T13:11:29;0.30;;;0.30;;
78296;SDS011;67555;47.660;19.622;2023-08-06T13:14:12;2.38;;;0.40;;
78296;SDS011;67555;47.660;19.622;2023-08-06T13:16:41;0.00;;;0.00;;
78296;SDS011;67555;47.660;19.622;2023-08-06T13:19:08;0.75;;;0.20;;
78296;SDS011;67555;47.660;19.622;2023-08-06T13:21:35;0.30;;;0.28;;
78296;SDS011;67555;47.660;19.622;2023-08-06T13:24:25;0.20;;;0.20;;
78296;SDS011;67555;47.660;19.622;2023-08-06T13:26:52;0.25;;;0.25;;
78296;SDS011;67555;47.660;19.622;2023-08-06T13:29:18;0.30;;;0.30;;
78296;SDS011;67555;47.660;19.622;2023-08-06T13:31:43;0.25;;;0.20;;
78296;SDS011;67555;47.660;19.622;2023-08-06T13:34:10;0.43;;;0.20;;
78296;SDS011;67555;47.660;19.622;2023-08-06T13:36:36;0.20;;;0.17;;
78296;SDS011;67555;47.660;19.622;2023-08-06T13:39:02;0.10;;;0.10;;
78296;SDS011;67555;47.660;19.622;2023-08-06T13:43:56;0.57;;;0.43;;
78296;SDS011;67555;47.660;19.622;2023-08-06T13:46:22;0.40;;;0.40;;
78296;SDS011;67555;47.660;19.622;2023-08-06T13:48:49;1.10;;;0.68;;
78296;SDS011;67555;47.660;19.622;2023-08-06T13:51:16;0.63;;;0.50;;
78296;SDS011;67555;47.660;19.622;2023-08-06T13:53:42;0.25;;;0.25;;
78296;SDS011;67555;47.660;19.622;2023-08-06T13:56:10;0.57;;;0.57;;
78296;SDS011;67555;47.660;19.622;2023-08-06T13:58:36;0.40;;;0.40;;
78296;SDS011;67555;47.660;19.622;2023-08-06T14:01:03;0.73;;;0.60;;
78296;SDS011;67555;47.660;19.622;2023-08-06T14:03:29;0.43;;;0.30;;
78296;SDS011;67555;47.660;19.622;2023-08-06T14:05:55;0.65;;;0.50;;
78296;SDS011;67555;47.660;19.622;2023-08-06T14:08:25;2.47;;;0.70;;
78296;SDS011;67555;47.660;19.622;2023-08-06T14:10:51;2.72;;;0.60;;
78296;SDS011;67555;47.660;19.622;2023-08-06T14:13:18;0.50;;;0.50;;
78296;SDS011;67555;47.660;19.622;2023-08-06T14:15:44;0.52;;;0.52;;
78296;SDS011;67555;47.660;19.622;2023-08-06T14:18:15;0.10;;;0.10;;
78296;SDS011;67555;47.660;19.622;2023-08-06T14:20:41;0.30;;;0.30;;
78296;SDS011;67555;47.660;19.622;2023-08-06T14:23:08;0.20;;;0.20;;
78296;SDS011;67555;47.660;19.622;2023-08-06T14:25:34;0.50;;;0.50;;
78296;SDS011;67555;47.660;19.622;2023-08-06T14:28:00;0.70;;;0.50;;
78296;SDS011;67555;47.660;19.622;2023-08-06T14:30:26;0.60;;;0.60;;
78296;SDS011;67555;47.660;19.622;2023-08-06T14:32:52;0.68;;;0.68;;
78296;SDS011;67555;47.660;19.622;2023-08-06T14:35:18;0.80;;;0.38;;
78296;SDS011;67555;47.660;19.622;2023-08-06T14:37:45;0.45;;;0.45;;
78296;SDS011;67555;47.660;19.622;2023-08-06T14:40:11;0.77;;;0.77;;
78296;SDS011;67555;47.660;19.622;2023-08-06T14:42:37;0.30;;;0.30;;
78296;SDS011;67555;47.660;19.622;2023-08-06T14:45:04;0.82;;;0.38;;
78296;SDS011;67555;47.660;19.622;2023-08-06T14:47:30;0.40;;;0.40;;
78296;SDS011;67555;47.660;19.622;2023-08-06T14:49:56;0.65;;;0.52;;
78296;SDS011;67555;47.660;19.622;2023-08-06T14:52:22;0.93;;;0.77;;
78296;SDS011;67555;47.660;19.622;2023-08-06T14:54:48;0.22;;;0.22;;
78296;SDS011;67555;47.660;19.622;2023-08-06T14:57:17;0.63;;;0.50;;
78296;SDS011;67555;47.660;19.622;2023-08-06T14:59:43;0.75;;;0.75;;
78296;SDS011;67555;47.660;19.622;2023-08-06T15:02:10;0.40;;;0.40;;